Portada
METAR-TAF:

METAR-TAF

Aeroports :

Skaka, Aràbia Saudita

latitud: 29-47N, longitud: 040-06E, altitud: 689 m

Observació

L'informe es va fer fa 1 hora i 11 minuts, a les 13:00 UTC
Vent 6 kt del Sud-Est
Temperatura 22°C
Humitat 19%
Pressió 1021 hPa
Visibilitat 10 km o més
Escasses núvols a una alçada de 4000 ft

METAR: OESK 021300Z 14006KT 9999 FEW040 22/M03 Q1021

Hora: 17:11 (14:11 UTC)

Pronòstic

L'informe es va fer fa 3 hores i 11 minuts, a les 11:00 UTC
Pronòstic vàlid del 02 a les 12 UTC al 03 a les 18 UTC
Vent 10 kt del Sud/Sud-Est
Visibilitat 10 km o més
sense núvols per sota de 1500 mi sense presència de cumulonimbus.
Evolucionant progressivament
l' 02 a les 20 UTC al 02 a les 22 UTC
Vent 3 kt amb direcció variable
Evolucionant progressivament
l' 03 a les 06 UTC al 03 a les 08 UTC
Vent 15 kt del Sud-Oest

TAF: OESK 021100Z 0212/0318 16010KT CAVOK BECMG 0220/0222 VRB03KT BECMG 0306/0308 22015KT

Observacions i pronòstics meteorològics de més de 4000 aeroports (METAR i TAF).

Les estacions disponibles són els punts grocs i vermells al mapa.

Posi el ratolí al punt desitjat per veure el nom de l'estació.

Feu clic per veure les observacions i els pronòstics meteorològics.

Per canviar el mapa: feu clic els botons verds amb una creu de color negre per apropar; al botó verd amb un guió per allunyar la imatge; o en les fletxes verdes per a mapes adjacents.


METAR-TAF: